Time;durP1;ratioP1;P1;durP2;ratioP2;P2;SDS_P1;SDS_P2;PMS_P1;PMS_P2;Temp;Humidity;BMP_temperature;BMP_pressure;BME280_temperature;BME280_humidity;BME280_pressure;Samples;Min_cycle;Max_cycle;Signal;HPM_P1;HPM_P2
2022/06/25 00:01:55;;;;;;;;;2.00;2.00;;;;;21.15;54.39;100396.41;5114754;27;45250;-84
2022/06/25 00:07:04;;;;;;;;;4.75;3.00;;;;;21.14;54.52;100390.16;5113128;27;45488;-84
2022/06/25 00:09:30;;;;;;;;;3.25;2.75;;;;;21.16;54.67;100391.03;5100424;27;45073;-93
2022/06/25 00:14:39;;;;;;;;;3.00;3.00;;;;;21.31;55.30;100416.69;5094125;28;45223;-83
2022/06/25 00:17:05;;;;;;;;;4.75;4.00;;;;;21.20;54.97;100410.56;5092551;27;46360;-86
2022/06/25 00:19:30;;;;;;;;;3.25;3.25;;;;;21.11;55.46;100400.88;5107409;27;45094;-86
2022/06/25 00:21:55;;;;;;;;;4.50;4.00;;;;;21.05;55.36;100401.88;5112885;27;45337;-83
2022/06/25 00:24:22;;;;;;;;;7.00;6.00;;;;;20.99;55.37;100393.94;5111922;27;45329;-92
2022/06/25 00:26:47;;;;;;;;;5.25;4.00;;;;;21.31;55.70;100448.75;5114115;27;45700;-91
2022/06/25 00:29:13;;;;;;;;;5.00;5.00;;;;;21.06;55.49;100408.97;5113218;27;45146;-83
2022/06/25 00:31:38;;;;;;;;;4.75;4.00;;;;;20.95;55.68;100386.88;5129126;27;45017;-90
2022/06/25 00:34:04;;;;;;;;;4.00;4.00;;;;;20.83;56.03;100366.53;5127230;27;45067;-90
2022/06/25 00:36:30;;;;;;;;;2.00;2.00;;;;;20.79;56.40;100369.28;5128076;27;46714;-82
2022/06/25 00:38:55;;;;;;;;;3.00;2.75;;;;;20.88;56.24;100382.50;5110799;27;45570;-82
2022/06/25 00:41:21;;;;;;;;;4.00;3.00;;;;;20.82;57.32;100377.25;5112484;27;45196;-86
2022/06/25 00:43:46;;;;;;;;;3.00;2.75;;;;;20.78;56.66;100359.47;5113017;27;45082;-82
2022/06/25 00:46:12;;;;;;;;;3.00;3.00;;;;;21.02;57.34;100419.72;5111740;27;45952;-83
2022/06/25 00:48:37;;;;;;;;;4.50;3.00;;;;;20.85;57.20;100380.75;5113203;27;45364;-85
2022/06/25 00:51:11;;;;;;;;;5.00;4.00;;;;;20.81;57.09;100386.16;5113978;27;45072;-93
2022/06/25 00:53:41;;;;;;;;;3.50;3.25;;;;;20.98;57.58;100412.63;5113339;27;45132;-86
2022/06/25 00:56:09;;;;;;;;;2.00;2.00;;;;;21.18;56.95;100444.44;5108361;27;45992;-89
2022/06/25 00:58:39;;;;;;;;;3.00;2.75;;;;;20.88;57.35;100395.84;5073367;28;45403;-84
2022/06/25 01:01:05;;;;;;;;;3.00;2.00;;;;;20.92;57.40;100402.94;5089678;28;45398;-87
2022/06/25 01:03:30;;;;;;;;;3.00;3.00;;;;;20.97;57.59;100417.09;5093422;28;45103;-90
2022/06/25 01:05:56;;;;;;;;;3.25;2.50;;;;;20.95;57.10;100407.34;5093411;28;45077;-88
2022/06/25 01:08:21;;;;;;;;;2.00;2.00;;;;;20.86;57.48;100397.66;5088983;28;45137;-93
2022/06/25 01:10:47;;;;;;;;;2.00;2.00;;;;;20.93;57.22;100398.47;5088870;28;45208;-82
2022/06/25 01:13:12;;;;;;;;;4.00;3.00;;;;;20.99;57.04;100403.75;5091623;28;45207;-86
2022/06/25 01:15:38;;;;;;;;;3.00;3.00;;;;;20.67;57.04;100356.97;5091910;28;45325;-92
2022/06/25 01:18:04;;;;;;;;;2.75;2.00;;;;;20.86;57.72;100397.66;5092154;28;45281;-83
2022/06/25 01:20:29;;;;;;;;;2.00;2.00;;;;;20.71;56.77;100377.38;5092301;28;44910;-82
2022/06/25 01:22:54;;;;;;;;;1.75;1.75;;;;;20.47;56.99;100353.66;5074788;28;45247;-89
2022/06/25 01:25:20;;;;;;;;;1.00;1.00;;;;;20.84;57.28;100410.19;5073494;28;46950;-90
2022/06/25 01:27:46;;;;;;;;;2.75;2.00;;;;;21.01;56.99;100436.66;5090815;28;45708;-84
2022/06/25 01:30:15;;;;;;;;;2.25;2.25;;;;;20.96;57.19;100436.72;5092692;28;45099;-92
2022/06/25 01:32:40;;;;;;;;;1.75;1.25;;;;;21.05;57.15;100447.28;5072641;28;45292;-90
2022/06/25 01:35:08;;;;;;;;;2.50;2.50;;;;;21.04;57.28;100445.53;5092230;28;45288;-84
2022/06/25 01:37:34;;;;;;;;;1.75;1.75;;;;;20.65;57.74;100372.13;5091296;28;45281;-94
2022/06/25 01:40:00;;;;;;;;;2.75;2.00;;;;;20.66;57.65;100376.56;5091409;28;45265;-94
2022/06/25 01:45:10;;;;;;;;;2.50;2.00;;;;;20.72;57.89;100399.63;5091260;28;45176;-86
2022/06/25 01:47:36;;;;;;;;;2.00;2.00;;;;;20.56;57.95;100381.13;5089812;28;45735;-83
2022/06/25 01:50:01;;;;;;;;;2.00;2.00;;;;;20.66;58.30;100397.03;5072481;28;47706;-89
2022/06/25 01:52:26;;;;;;;;;2.00;2.00;;;;;20.93;58.18;100434.06;5091920;28;45259;-91
2022/06/25 01:54:52;;;;;;;;;2.00;2.00;;;;;20.78;57.88;100399.53;5089915;28;47346;-92
2022/06/25 01:57:17;;;;;;;;;1.75;1.75;;;;;20.91;57.74;100429.66;5097094;27;45508;-94
2022/06/25 01:59:44;;;;;;;;;1.00;1.00;;;;;20.95;58.04;100434.06;5112878;27;45259;-84
2022/06/25 02:02:09;;;;;;;;;1.75;1.75;;;;;20.68;57.80;100385.41;5127317;27;45415;-83
2022/06/25 02:04:35;;;;;;;;;1.00;1.00;;;;;20.63;57.81;100381.94;5112131;27;45715;-82
2022/06/25 02:07:00;;;;;;;;;1.00;1.00;;;;;20.53;57.90;100378.47;5127527;27;45228;-84
2022/06/25 02:09:25;;;;;;;;;3.00;2.00;;;;;20.78;58.34;100415.56;5098859;27;45264;-91
2022/06/25 02:11:51;;;;;;;;;1.50;1.50;;;;;20.74;57.94;100414.75;5109570;27;45253;-91
2022/06/25 02:14:16;;;;;;;;;1.25;1.00;;;;;20.59;58.58;100386.44;5127731;27;47220;-83
2022/06/25 02:16:41;;;;;;;;;1.25;1.25;;;;;21.00;58.11;100459.81;5112407;27;45373;-87
2022/06/25 02:19:07;;;;;;;;;2.75;2.00;;;;;20.99;57.75;100458.06;5112624;27;45195;-89
2022/06/25 02:21:32;;;;;;;;;1.00;1.00;;;;;20.36;58.64;100348.41;5108936;27;45257;-92
2022/06/25 02:23:58;;;;;;;;;1.25;0.75;;;;;20.65;58.25;100392.63;5112233;27;45199;-85
2022/06/25 02:26:23;;;;;;;;;1.00;1.00;;;;;20.84;58.43;100423.53;5111770;27;45361;-87
2022/06/25 02:28:48;;;;;;;;;1.50;1.25;;;;;20.65;58.21;100384.59;5109086;27;45122;-91
2022/06/25 02:31:14;;;;;;;;;1.00;1.00;;;;;20.57;58.60;100388.22;5109584;27;45211;-83
2022/06/25 02:33:39;;;;;;;;;1.25;1.00;;;;;20.54;58.38;100385.63;5110028;27;47021;-86
2022/06/25 02:36:05;;;;;;;;;1.50;1.00;;;;;20.59;58.95;100389.13;5110988;27;45359;-83
2022/06/25 02:38:30;;;;;;;;;2.00;2.00;;;;;20.58;58.77;100384.66;5110625;27;45275;-84
2022/06/25 02:40:56;;;;;;;;;1.00;1.00;;;;;20.78;58.74;100431.59;5111161;27;45118;-85
2022/06/25 02:43:22;;;;;;;;;2.00;1.50;;;;;20.51;58.21;100379.41;5112659;27;45397;-91
2022/06/25 02:45:47;;;;;;;;;1.00;1.00;;;;;20.81;58.66;100451.16;5112174;27;45011;-92
2022/06/25 02:48:12;;;;;;;;;1.50;1.50;;;;;20.36;58.80;100392.00;5109195;27;45403;-83
2022/06/25 02:50:38;;;;;;;;;1.00;1.00;;;;;20.68;59.27;100456.66;5127597;27;45139;-84
2022/06/25 02:53:03;;;;;;;;;1.25;1.25;;;;;20.34;59.52;100409.84;5110895;27;45876;-89
2022/06/25 03:01:01;;;;;;;;;1.00;1.00;;;;;20.22;60.22;100404.63;5109690;27;45325;-82
2022/06/25 03:03:26;;;;;;;;;2.00;1.00;;;;;20.28;60.77;100419.66;5110821;27;45706;-83
2022/06/25 03:05:52;;;;;;;;;1.00;1.00;;;;;20.16;61.05;100396.69;5111326;27;45205;-86
2022/06/25 03:08:17;;;;;;;;;2.00;2.00;;;;;20.48;62.00;100476.44;5107864;27;45450;-85
2022/06/25 03:10:43;;;;;;;;;1.00;1.00;;;;;20.08;61.75;100406.53;5089909;28;45437;-87
2022/06/25 03:13:10;;;;;;;;;0.00;0.00;;;;;19.93;62.26;100404.00;5089674;28;45269;-86
2022/06/25 03:15:35;;;;;;;;;0.00;0.00;;;;;19.94;62.53;100405.78;5089318;28;45701;-82
2022/06/25 03:18:00;;;;;;;;;0.00;0.00;;;;;19.96;62.78;100414.66;5108369;27;45669;-83
2022/06/25 03:20:26;;;;;;;;;0.00;0.00;;;;;19.94;63.39;100416.44;5111103;27;45160;-81
2022/06/25 03:22:51;;;;;;;;;0.00;0.00;;;;;19.99;63.52;100426.16;5111353;27;45679;-88
2022/06/25 03:25:16;;;;;;;;;1.00;1.00;;;;;19.84;63.84;100389.84;5110497;27;45172;-83
2022/06/25 03:27:42;;;;;;;;;1.00;1.00;;;;;19.92;64.19;100413.81;5110789;27;44897;-86
2022/06/25 03:30:07;;;;;;;;;0.75;0.50;;;;;20.09;64.25;100440.31;5111344;27;45098;-86
2022/06/25 03:32:33;;;;;;;;;1.00;0.75;;;;;20.05;63.84;100439.47;5126463;27;47764;-85
2022/06/25 03:34:58;;;;;;;;;2.00;1.00;;;;;20.19;64.04;100467.78;5127484;27;45078;-81
2022/06/25 03:37:23;;;;;;;;;1.00;1.00;;;;;19.87;64.15;100426.28;5111077;27;45272;-85
2022/06/25 03:39:48;;;;;;;;;2.00;1.00;;;;;19.94;64.45;100444.00;5109919;27;45130;-86
2022/06/25 03:42:14;;;;;;;;;1.00;1.00;;;;;19.98;64.27;100448.41;5111433;27;45456;-86
2022/06/25 03:44:39;;;;;;;;;0.00;0.00;;;;;20.17;64.41;100475.81;5111111;27;45144;-86
2022/06/25 03:47:04;;;;;;;;;0.75;0.75;;;;;20.08;64.40;100458.09;5127367;27;44992;-87
2022/06/25 03:49:30;;;;;;;;;1.75;1.00;;;;;20.22;64.20;100473.13;5111479;27;44964;-86
2022/06/25 03:51:55;;;;;;;;;2.00;1.00;;;;;20.10;64.80;100458.13;5111293;27;45698;-87
2022/06/25 03:54:21;;;;;;;;;1.00;1.00;;;;;20.10;64.18;100443.00;5110302;27;45050;-86
2022/06/25 03:56:47;;;;;;;;;0.50;0.50;;;;;20.31;64.21;100481.03;5102987;27;45482;-87
2022/06/25 03:59:12;;;;;;;;;0.50;0.50;;;;;20.07;64.29;100445.66;5091611;28;45171;-88
2022/06/25 04:01:38;;;;;;;;;1.00;1.00;;;;;20.31;64.06;100478.38;5091369;28;45315;-85
2022/06/25 04:04:03;;;;;;;;;1.00;0.00;;;;;20.10;64.29;100442.09;5090911;28;45229;-85
2022/06/25 04:06:29;;;;;;;;;1.00;1.00;;;;;20.40;64.24;100491.63;5090736;28;45700;-83
2022/06/25 04:08:54;;;;;;;;;1.00;1.00;;;;;20.09;63.88;100441.19;5090810;28;45060;-88
2022/06/25 04:11:20;;;;;;;;;1.00;1.00;;;;;20.17;63.48;100451.81;5088308;27;53139;-87
2022/06/25 04:13:45;;;;;;;;;1.00;1.00;;;;;20.20;64.03;100461.59;5075310;28;45151;-86
2022/06/25 04:16:11;;;;;;;;;2.00;2.00;;;;;20.30;63.38;100487.28;5091195;28;45298;-83
2022/06/25 04:18:36;;;;;;;;;1.00;1.00;;;;;20.05;63.77;100444.81;5063871;28;45215;-81
2022/06/25 04:21:01;;;;;;;;;0.75;0.75;;;;;20.21;63.37;100484.69;5074542;27;45915;-88
2022/06/25 04:23:27;;;;;;;;;0.25;0.25;;;;;20.09;63.45;100467.88;5090977;27;44973;-87
2022/06/25 04:25:52;;;;;;;;;0.50;0.00;;;;;19.95;63.48;100436.88;5089740;28;45030;-83
2022/06/25 04:31:02;;;;;;;;;1.00;1.00;;;;;20.03;63.23;100451.03;5087320;28;45216;-89
2022/06/25 04:33:27;;;;;;;;;1.00;0.25;;;;;20.13;63.25;100473.19;5092878;28;45137;-87
2022/06/25 04:35:53;;;;;;;;;0.25;0.00;;;;;20.39;63.39;100502.31;5091174;28;45577;-82
2022/06/25 04:38:18;;;;;;;;;0.00;0.00;;;;;20.40;63.56;100515.66;5074431;28;45137;-90
2022/06/25 04:40:43;;;;;;;;;0.25;0.25;;;;;20.38;62.46;100506.75;5088116;28;48609;-87
2022/06/25 04:43:09;;;;;;;;;1.00;1.00;;;;;20.36;62.94;100488.09;5092708;28;45392;-83
2022/06/25 04:45:34;;;;;;;;;1.00;0.75;;;;;20.25;63.12;100473.09;5074431;28;45155;-85
2022/06/25 04:48:01;;;;;;;;;2.00;0.75;;;;;20.48;63.37;100508.47;5085348;28;45092;-85
2022/06/25 04:50:27;;;;;;;;;2.00;0.00;;;;;20.31;62.93;100478.38;5089927;28;45495;-86
2022/06/25 04:52:52;;;;;;;;;1.00;1.00;;;;;20.38;63.15;100497.88;5092176;28;45052;-82
2022/06/25 04:55:19;;;;;;;;;0.75;0.75;;;;;20.40;62.84;100490.75;5092341;28;45033;-83
2022/06/25 04:57:44;;;;;;;;;1.00;1.00;;;;;20.21;63.15;100448.22;5105628;27;45379;-84
2022/06/25 05:00:13;;;;;;;;;1.00;0.00;;;;;20.54;62.86;100496.84;5090877;27;45803;-82
2022/06/25 05:02:39;;;;;;;;;1.00;1.00;;;;;20.69;62.61;100511.81;5094647;27;45996;-81
2022/06/25 05:05:06;;;;;;;;;0.50;0.50;;;;;20.46;62.18;100470.22;5110309;27;45704;-80
2022/06/25 05:07:31;;;;;;;;;0.25;0.25;;;;;20.58;61.88;100487.91;5094718;27;45704;-84
2022/06/25 05:09:57;;;;;;;;;1.00;1.00;;;;;20.68;62.12;100507.41;5077090;27;46419;-83
2022/06/25 05:15:07;;;;;;;;;0.75;0.75;;;;;20.58;61.80;100490.56;5073931;28;45734;-82
2022/06/25 05:17:33;;;;;;;;;1.50;1.00;;;;;20.52;62.10;100482.63;5074422;27;45551;-86
2022/06/25 05:19:58;;;;;;;;;1.00;1.00;;;;;20.57;61.43;100494.16;5079725;27;46743;-84
2022/06/25 05:22:23;;;;;;;;;0.00;0.00;;;;;20.60;61.32;100496.81;5094677;27;45600;-86
2022/06/25 05:24:54;;;;;;;;;1.00;0.00;;;;;20.79;61.37;100530.44;5093204;27;45453;-80
2022/06/25 05:27:23;;;;;;;;;1.00;1.00;;;;;20.63;61.82;100499.44;5092982;27;45606;-82
2022/06/25 05:29:48;;;;;;;;;0.00;0.00;;;;;20.65;61.27;100504.78;5091199;27;45472;-82
2022/06/25 05:32:13;;;;;;;;;0.25;0.25;;;;;20.72;60.99;100511.81;5091793;27;45773;-81
2022/06/25 05:34:39;;;;;;;;;0.75;0.75;;;;;20.80;60.77;100537.53;5082222;27;45612;-82
2022/06/25 05:37:04;;;;;;;;;1.00;1.00;;;;;20.66;61.19;100519.88;5086334;27;45615;-82
2022/06/25 05:39:30;;;;;;;;;0.00;0.00;;;;;20.62;61.25;100513.69;5091674;27;46439;-86
2022/06/25 05:41:55;;;;;;;;;1.00;1.00;;;;;20.62;61.20;100500.34;5093832;27;45697;-86
2022/06/25 05:44:20;;;;;;;;;1.00;1.00;;;;;20.74;60.57;100518.91;5091395;27;45715;-87
2022/06/25 05:46:46;;;;;;;;;1.00;1.00;;;;;20.71;60.70;100512.72;5090849;27;46278;-83
2022/06/25 05:49:11;;;;;;;;;1.00;1.00;;;;;20.83;60.33;100531.25;5090277;27;51896;-84
2022/06/25 05:51:36;;;;;;;;;1.50;1.50;;;;;20.68;60.34;100499.38;5090025;27;45379;-81
2022/06/25 05:54:02;;;;;;;;;1.00;1.00;;;;;20.78;60.28;100517.06;5092719;27;45456;-82
2022/06/25 05:56:27;;;;;;;;;1.00;1.00;;;;;20.76;60.88;100501.06;5087427;27;45761;-86
2022/06/25 05:58:52;;;;;;;;;1.00;1.00;;;;;20.82;60.27;100501.00;5055032;28;46135;-83
2022/06/25 06:01:17;;;;;;;;;1.00;1.00;;;;;20.74;59.76;100483.28;5073398;28;45436;-86
2022/06/25 06:03:43;;;;;;;;;2.00;2.00;;;;;21.07;59.70;100541.69;5074132;28;45463;-82
2022/06/25 06:06:08;;;;;;;;;0.00;0.00;;;;;20.93;59.55;100526.69;5048288;28;45796;-87
2022/06/25 06:08:34;;;;;;;;;0.00;0.00;;;;;20.91;59.96;100534.75;5049809;28;48025;-84
2022/06/25 06:10:59;;;;;;;;;2.00;1.00;;;;;20.85;60.10;100529.47;5070152;28;45367;-88
2022/06/25 06:13:24;;;;;;;;;1.00;1.00;;;;;20.94;60.16;100547.19;5082373;28;45056;-82
2022/06/25 06:15:50;;;;;;;;;0.00;0.00;;;;;20.81;60.14;100522.41;5073474;28;45696;-86
2022/06/25 06:18:15;;;;;;;;;1.75;1.75;;;;;20.74;60.80;100510.91;5074021;28;46249;-84
2022/06/25 06:20:40;;;;;;;;;0.00;0.00;;;;;20.64;60.84;100494.97;5075128;28;45357;-87
2022/06/25 06:23:06;;;;;;;;;1.00;1.00;;;;;20.90;60.47;100534.78;5074367;28;45362;-87
2022/06/25 06:25:31;;;;;;;;;1.00;1.00;;;;;20.94;61.20;100537.41;5066123;28;45627;-84
2022/06/25 06:27:57;;;;;;;;;1.00;1.00;;;;;20.94;60.72;100529.38;5057028;28;46504;-89
2022/06/25 06:30:22;;;;;;;;;1.75;1.00;;;;;21.02;61.28;100540.84;5058910;28;45723;-80
2022/06/25 06:32:48;;;;;;;;;1.00;0.00;;;;;20.99;61.53;100537.34;5073167;28;45576;-90
2022/06/25 06:35:13;;;;;;;;;0.25;0.25;;;;;20.96;61.91;100530.22;5076509;28;45540;-83
2022/06/25 06:37:38;;;;;;;;;1.75;1.75;;;;;21.02;61.16;100521.25;5080672;28;45419;-89
2022/06/25 06:40:06;;;;;;;;;1.00;1.00;;;;;21.23;61.09;100554.84;5077533;28;45661;-90
2022/06/25 06:42:31;;;;;;;;;1.00;1.00;;;;;21.10;60.37;100528.28;5068795;28;45715;-88
2022/06/25 06:44:56;;;;;;;;;1.00;1.00;;;;;21.28;60.81;100567.28;5083684;28;45480;-85
2022/06/25 06:47:22;;;;;;;;;0.00;0.00;;;;;21.08;61.14;100535.47;5078743;28;45805;-82
2022/06/25 06:49:47;;;;;;;;;2.00;1.00;;;;;21.06;61.23;100531.91;5078549;28;45435;-85
2022/06/25 06:52:13;;;;;;;;;0.75;0.75;;;;;20.94;61.44;100515.13;5074211;28;45589;-83
2022/06/25 06:54:38;;;;;;;;;1.75;1.75;;;;;21.04;61.27;100531.03;5058419;28;45569;-87
2022/06/25 06:57:04;;;;;;;;;0.00;0.00;;;;;20.94;61.39;100501.78;5071847;27;46290;-85
2022/06/25 06:59:29;;;;;;;;;1.00;1.00;;;;;20.68;60.57;100453.97;5070243;28;45383;-84
2022/06/25 07:01:54;;;;;;;;;1.00;1.00;;;;;21.37;59.75;100590.38;5069199;28;45701;-85
2022/06/25 07:04:20;;;;;;;;;1.50;1.00;;;;;20.35;59.89;100424.06;5070892;28;45507;-84
2022/06/25 07:06:45;;;;;;;;;1.00;1.00;;;;;21.16;59.03;100574.56;5071171;28;45377;-83
2022/06/25 07:09:10;;;;;;;;;0.00;0.00;;;;;21.12;59.14;100571.91;5070493;28;45664;-85
2022/06/25 07:11:36;;;;;;;;;1.00;1.00;;;;;21.09;59.30;100560.38;5071074;28;45566;-87
2022/06/25 07:14:04;;;;;;;;;1.00;1.00;;;;;21.23;58.91;100585.19;5070244;28;45656;-88
2022/06/25 07:16:30;;;;;;;;;0.25;0.25;;;;;21.02;59.28;100545.31;5070278;28;45471;-85
2022/06/25 07:18:58;;;;;;;;;1.50;1.00;;;;;21.04;59.62;100539.06;5052205;28;46323;-87
2022/06/25 07:21:24;;;;;;;;;1.00;1.00;;;;;20.98;59.79;100514.19;5051826;28;45367;-86
2022/06/25 07:23:50;;;;;;;;;1.00;0.75;;;;;20.65;59.85;100443.34;5069133;28;45461;-85
2022/06/25 07:26:15;;;;;;;;;1.50;1.25;;;;;21.24;59.77;100538.81;5070369;28;45744;-81
2022/06/25 07:28:41;;;;;;;;;0.50;0.50;;;;;21.22;60.06;100531.72;5070501;28;45381;-84
2022/06/25 07:31:06;;;;;;;;;0.75;0.75;;;;;21.36;60.32;100556.53;5070368;28;45570;-84
2022/06/25 07:33:32;;;;;;;;;1.00;1.00;;;;;21.41;60.02;100557.34;5071289;28;45362;-85
2022/06/25 07:35:58;;;;;;;;;1.00;1.00;;;;;21.42;59.48;100548.41;5069882;28;45445;-84
2022/06/25 07:38:23;;;;;;;;;1.00;1.00;;;;;21.73;59.07;100589.03;5070604;28;45714;-84
2022/06/25 07:40:49;;;;;;;;;0.75;0.75;;;;;21.49;59.22;100522.50;5052409;28;45730;-85
2022/06/25 07:43:16;;;;;;;;;2.00;1.00;;;;;21.77;58.18;100552.38;5070037;28;45476;-84
2022/06/25 07:45:41;;;;;;;;;1.00;1.00;;;;;21.69;57.86;100524.88;5051238;28;48127;-85
2022/06/25 07:48:07;;;;;;;;;1.00;1.00;;;;;21.83;58.11;100560.34;5071604;28;45701;-84
2022/06/25 07:53:16;;;;;;;;;2.00;1.00;;;;;22.01;57.56;100591.28;5073632;28;45466;-84
2022/06/25 07:55:41;;;;;;;;;1.00;1.00;;;;;21.69;57.47;100540.94;5056220;28;46749;-85
2022/06/25 07:58:07;;;;;;;;;3.25;2.50;;;;;21.86;57.44;100568.31;5073227;27;45665;-83
2022/06/25 08:00:33;;;;;;;;;1.50;1.00;;;;;21.78;56.73;100557.75;5072395;28;45507;-87
2022/06/25 08:02:58;;;;;;;;;1.00;1.00;;;;;22.03;56.27;100598.41;5073719;28;45405;-85
2022/06/25 08:05:25;;;;;;;;;1.00;1.00;;;;;21.77;56.06;100561.31;5073873;28;46439;-85
2022/06/25 08:07:50;;;;;;;;;1.00;1.00;;;;;21.89;55.74;100590.56;5055735;28;45427;-86
2022/06/25 08:10:19;;;;;;;;;3.25;2.00;;;;;21.88;55.35;100586.13;5035723;28;45576;-86
2022/06/25 08:12:44;;;;;;;;;2.00;2.00;;;;;21.75;55.28;100548.88;5053662;28;45335;-86
2022/06/25 08:15:11;;;;;;;;;1.00;1.00;;;;;21.86;54.82;100576.34;5052819;28;45781;-83
2022/06/25 08:17:37;;;;;;;;;3.00;2.00;;;;;21.70;55.91;100559.63;5053416;28;45435;-86
2022/06/25 08:20:03;;;;;;;;;0.25;0.25;;;;;22.07;54.22;100610.84;5052682;28;45502;-83
2022/06/25 08:22:28;;;;;;;;;0.50;0.50;;;;;21.84;53.77;100580.84;5051830;28;45435;-86
2022/06/25 08:24:54;;;;;;;;;1.00;1.00;;;;;21.78;53.95;100584.50;5051811;28;48146;-84
2022/06/25 08:27:19;;;;;;;;;0.00;0.00;;;;;21.67;53.99;100580.19;5051488;28;45445;-86
2022/06/25 08:29:46;;;;;;;;;1.00;0.00;;;;;21.74;53.30;100614.88;5053456;28;45674;-85
2022/06/25 08:32:11;;;;;;;;;1.00;1.00;;;;;21.46;53.93;100578.69;5051920;28;45606;-85
2022/06/25 08:34:36;;;;;;;;;1.00;1.00;;;;;21.64;53.98;100626.59;5034718;28;50338;-85
2022/06/25 08:37:02;;;;;;;;;1.00;1.00;;;;;21.56;54.17;100626.69;5052847;28;45377;-84
2022/06/25 08:39:28;;;;;;;;;2.00;1.25;;;;;21.19;54.67;100562.06;5052891;28;45399;-86
2022/06/25 08:41:54;;;;;;;;;1.00;1.00;;;;;21.57;55.47;100636.47;5053243;28;45677;-85
2022/06/25 08:44:20;;;;;;;;;1.00;1.00;;;;;21.25;55.35;100579.81;5052574;28;45465;-84
2022/06/25 08:46:45;;;;;;;;;1.50;1.25;;;;;21.44;55.32;100615.25;5051432;28;45980;-84
2022/06/25 08:49:11;;;;;;;;;1.25;1.25;;;;;21.42;55.63;100617.03;5052272;28;45562;-82
2022/06/25 08:51:38;;;;;;;;;1.00;1.00;;;;;21.38;55.97;100611.75;5034898;28;45375;-87
2022/06/25 08:54:07;;;;;;;;;2.50;2.00;;;;;21.28;56.05;100610.06;5052527;28;45668;-84
2022/06/25 08:56:33;;;;;;;;;2.00;2.00;;;;;21.36;56.92;100626.91;5052203;28;45387;-84
2022/06/25 08:58:59;;;;;;;;;2.00;2.00;;;;;21.22;56.91;100601.22;5051645;28;45397;-84
2022/06/25 09:01:24;;;;;;;;;1.00;1.00;;;;;21.46;57.22;100640.19;5050698;28;45348;-82
2022/06/25 09:03:49;;;;;;;;;1.25;1.25;;;;;21.27;58.67;100600.25;5052263;28;45597;-85
2022/06/25 09:06:20;;;;;;;;;2.00;2.00;;;;;21.17;59.18;100569.19;5034201;28;45477;-85
2022/06/25 09:09:13;;;;;;;;;1.00;1.00;;;;;21.30;57.97;100580.63;5060160;28;45552;-84
2022/06/25 09:11:47;;;;;;;;;1.50;1.50;;;;;21.64;58.61;100634.63;5072697;28;45486;-86
2022/06/25 09:14:28;;;;;;;;;1.75;1.50;;;;;21.70;58.07;100620.28;5054163;28;47119;-84
2022/06/25 09:16:59;;;;;;;;;3.25;2.75;;;;;21.69;58.28;100619.41;5072577;28;45669;-86
2022/06/25 09:19:40;;;;;;;;;1.75;1.75;;;;;21.78;58.04;100616.59;5070436;28;45478;-84
2022/06/25 09:22:18;;;;;;;;;2.50;2.00;;;;;21.79;57.81;100606.78;5072234;28;45559;-82
2022/06/25 09:24:58;;;;;;;;;2.00;2.00;;;;;21.94;58.45;100611.91;5072642;28;45421;-85
2022/06/25 09:27:33;;;;;;;;;3.00;3.00;;;;;22.11;58.24;100617.94;5071795;28;45368;-86
2022/06/25 09:30:06;;;;;;;;;3.25;2.50;;;;;22.08;57.75;100601.00;5071693;28;45524;-83
2022/06/25 09:32:47;;;;;;;;;1.75;1.50;;;;;21.89;57.95;100544.19;5072171;28;45705;-86
2022/06/25 09:35:14;;;;;;;;;4.00;3.00;;;;;22.11;57.19;100587.59;5071263;28;45442;-85
2022/06/25 09:37:40;;;;;;;;;1.00;1.00;;;;;22.08;57.35;100582.28;5072622;28;45533;-85
2022/06/25 09:40:07;;;;;;;;;2.50;2.50;;;;;21.96;57.56;100561.91;5070603;28;45685;-85
2022/06/25 09:42:34;;;;;;;;;3.00;2.00;;;;;22.20;57.04;100616.03;5071619;28;45509;-85
2022/06/25 09:45:08;;;;;;;;;2.00;2.00;;;;;22.12;56.74;100611.69;5071928;28;45533;-85
2022/06/25 09:47:35;;;;;;;;;2.50;2.50;;;;;21.75;57.08;100581.84;5072195;28;46049;-83
2022/06/25 09:50:19;;;;;;;;;2.00;2.00;;;;;21.67;57.37;100586.41;5072241;28;45525;-85
2022/06/25 09:52:59;;;;;;;;;3.00;2.25;;;;;21.76;58.01;100622.84;5054002;28;45836;-85
2022/06/25 09:55:28;;;;;;;;;2.00;2.00;;;;;21.79;57.90;100625.50;5071128;28;46222;-85
2022/06/25 09:57:54;;;;;;;;;2.25;2.25;;;;;21.44;58.79;100586.72;5072150;27;45350;-85
2022/06/25 10:00:22;;;;;;;;;2.00;2.00;;;;;21.67;58.42;100631.88;5071221;28;45344;-86
2022/06/25 10:02:49;;;;;;;;;2.25;2.00;;;;;21.44;59.32;100594.75;5071762;28;45403;-86
2022/06/25 10:05:23;;;;;;;;;3.00;1.00;;;;;21.20;58.60;100549.56;5052982;28;48354;-86
2022/06/25 10:08:00;;;;;;;;;4.00;4.00;;;;;21.51;59.22;100603.56;5054106;28;45914;-86
2022/06/25 10:10:29;;;;;;;;;3.25;3.00;;;;;21.61;58.83;100603.44;5071214;28;45438;-84
2022/06/25 10:12:55;;;;;;;;;3.00;2.00;;;;;21.58;58.60;100582.09;5071893;28;45608;-85
2022/06/25 10:15:23;;;;;;;;;3.00;2.00;;;;;21.65;58.68;100588.22;5070995;28;45526;-84
2022/06/25 10:17:51;;;;;;;;;2.00;1.50;;;;;21.69;58.29;100581.94;5053264;28;45881;-83
2022/06/25 10:20:18;;;;;;;;;2.50;2.50;;;;;21.62;58.03;100562.44;5071274;28;45550;-85
2022/06/25 10:22:49;;;;;;;;;2.25;2.25;;;;;21.97;58.59;100606.53;5053600;28;45466;-84
2022/06/25 10:25:19;;;;;;;;;2.50;2.50;;;;;21.71;57.25;100537.31;5070519;28;45472;-84
2022/06/25 10:27:47;;;;;;;;;2.00;2.00;;;;;21.74;57.64;100528.38;5072156;28;45963;-86
2022/06/25 10:30:15;;;;;;;;;3.50;3.00;;;;;22.27;58.14;100605.22;5070797;28;45359;-83
2022/06/25 10:32:46;;;;;;;;;2.75;2.75;;;;;22.07;57.73;100553.75;5053196;28;45591;-85
2022/06/25 10:35:29;;;;;;;;;2.00;2.00;;;;;22.17;56.86;100560.75;5071192;28;46497;-85
2022/06/25 10:38:13;;;;;;;;;2.25;2.00;;;;;21.82;57.61;100475.63;5071818;28;45371;-87
2022/06/25 10:43:57;;;;;;;;;2.75;2.25;;;;;22.81;56.63;100573.03;5009365;28;45386;-85
2022/06/25 10:46:31;;;;;;;;;3.00;3.00;;;;;22.90;55.49;100580.03;5070954;28;46524;-85
2022/06/25 10:48:56;;;;;;;;;2.00;2.00;;;;;23.21;55.79;100614.34;5070966;28;46166;-84
2022/06/25 10:51:41;;;;;;;;;2.33;2.00;;;;;23.29;56.04;100599.84;5053085;28;45343;-86
2022/06/25 10:54:11;;;;;;;;;2.50;2.00;;;;;23.42;54.22;100612.09;5071023;28;45533;-85
2022/06/25 10:56:48;;;;;;;;;2.00;1.25;;;;;23.30;54.83;100571.22;5064155;27;47208;-84
2022/06/25 10:59:33;;;;;;;;;4.00;3.25;;;;;23.75;55.11;100598.03;5089981;27;45865;-86
2022/06/25 11:02:00;;;;;;;;;2.00;2.00;;;;;23.90;55.39;100606.63;5089984;27;45599;-86
2022/06/25 11:04:27;;;;;;;;;1.75;1.75;;;;;24.01;55.16;100590.28;5091410;27;45525;-86
2022/06/25 11:06:52;;;;;;;;;2.25;2.25;;;;;24.26;54.66;100603.13;5091987;27;45396;-86
2022/06/25 11:09:19;;;;;;;;;2.00;2.00;;;;;24.24;52.10;100596.91;5090543;27;45552;-81
2022/06/25 11:11:47;;;;;;;;;3.00;2.00;;;;;23.93;53.46;100589.56;5091733;27;45554;-85
2022/06/25 11:14:20;;;;;;;;;3.50;2.00;;;;;23.63;52.99;100570.53;5091534;27;45560;-84
2022/06/25 11:16:46;;;;;;;;;1.00;1.00;;;;;23.54;53.97;100593.97;5091599;27;45499;-87
2022/06/25 11:19:11;;;;;;;;;3.00;3.00;;;;;23.26;52.89;100566.84;5090265;27;46225;-85
2022/06/25 11:21:42;;;;;;;;;2.00;2.00;;;;;23.28;53.80;100584.66;5091145;27;45789;-86
2022/06/25 11:24:26;;;;;;;;;2.50;2.50;;;;;23.22;54.05;100590.16;5090898;27;45472;-85
2022/06/25 11:29:50;;;;;;;;;2.00;2.00;;;;;23.03;54.16;100599.47;5091418;27;45328;-82
2022/06/25 11:32:28;;;;;;;;;2.00;2.00;;;;;22.89;54.27;100599.72;5090908;27;44823;-85
2022/06/25 11:34:56;;;;;;;;;3.50;3.00;;;;;22.98;55.06;100636.19;5090950;27;46149;-84
2022/06/25 11:37:21;;;;;;;;;2.25;2.25;;;;;22.86;54.93;100626.56;5090770;27;46178;-85
2022/06/25 11:39:47;;;;;;;;;2.00;2.00;;;;;22.70;55.20;100625.03;5090730;27;45285;-84
2022/06/25 11:42:14;;;;;;;;;2.75;2.75;;;;;22.23;55.34;100557.09;5090716;27;45447;-85
2022/06/25 11:44:50;;;;;;;;;3.00;3.00;;;;;22.39;56.71;100598.78;5091006;27;45392;-84
2022/06/25 11:47:22;;;;;;;;;2.00;2.00;;;;;22.29;56.42;100602.50;5089834;27;45488;-84
2022/06/25 11:49:48;;;;;;;;;5.00;3.00;;;;;22.29;56.70;100626.59;5090368;27;45501;-84
2022/06/25 11:52:16;;;;;;;;;3.00;3.00;;;;;21.95;57.57;100578.00;5090130;27;45591;-85